首页
METAR-TAF:

METAR-TAF

机场 :

弗拉季高加索, 俄罗斯

纬度: 43-12-18N, 经度: 044-36-24E, 海拔: 510米

当前天气观测

该预报发布于42分钟前的16:00 UTC
风速10节,风向东转东北
温度 22°C
湿度 57%
气压 1019 hPa
能见度10公里或以上

METAR: URMO 061600Z AUTO 07005MPS 9999 // NCD 22/13 Q1019 RMK QFE720/0961

时间: 19:42 (16:42 UTC)

预报

该预报发布于2小时和42分钟前的14:00 UTC
预报有效从06日的 15点(UTC)到 06日的 24点(UTC)
风速10节,风向东转东北,有时为21节阵风
能见度10公里或以上
散云层高于3000英尺
成为
从 06日的 16点(UTC)到 06日的 18点(UTC)
风速6节,风向东转东北,有时为16节阵风

TAF: URMO 061400Z 0615/0624 07005G11MPS 9999 SCT030 BECMG 0616/0618 06003G08MPS

超过4000个机场的气象观测和天气预报(METAR&TAF报告)。

可查询的气象台以黄色和红色小点在地图上表示。

将鼠标移到小点上方,可查看气象台名称。

然后点击查看天气观测和预报。

如需切换地图:点击带黑十字的绿色按钮放大地图;点击带横线的绿色按钮缩小地图;或者点击绿色箭头查看邻近地区的地图。


METAR-TAF: